Aviation Digital Data Service (ADDS)

Output produced by METARs form (2151 UTC 16 February 2019)
found at http://www.aviationweather.gov/metar/data/
 
METAR text: KUNV 162053Z 33006KT 10SM SKC 01/M07 A2993
Conditions at: KUNV (STATE COLLEGE , PA, US) observed 2053 UTC 16 February 2019
Temperature: 1.0°C (34°F)
Dewpoint: -7.0°C (19°F) [RH = 55%]
Pressure (altimeter): 29.93 inches Hg (1013.6 mb)
Winds: from the NNW (330 degrees) at 7 MPH (6 knots; 3.1 m/s)
Visibility: 10 or more miles (16+ km)
Ceiling: at least 12,000 feet AGL
Clouds: clear skies
Weather: no significant weather observed at this time

METAR text: KUNV 161953Z 32006KT 10SM SKC 01/M08 A2991
Conditions at: KUNV (STATE COLLEGE , PA, US) observed 1953 UTC 16 February 2019
Temperature: 1.0°C (34°F)
Dewpoint: -8.0°C (18°F) [RH = 51%]
Pressure (altimeter): 29.91 inches Hg (1013.0 mb)
Winds: from the NW (320 degrees) at 7 MPH (6 knots; 3.1 m/s)
Visibility: 10 or more miles (16+ km)
Ceiling: at least 12,000 feet AGL
Clouds: clear skies
Weather: no significant weather observed at this time

METAR text: KUNV 161853Z 32005KT 10SM SCT035 00/M08 A2992
Conditions at: KUNV (STATE COLLEGE , PA, US) observed 1853 UTC 16 February 2019
Temperature: 0.0°C (32°F)
Dewpoint: -8.0°C (18°F) [RH = 55%]
Pressure (altimeter): 29.92 inches Hg (1013.3 mb)
Winds: from the NW (320 degrees) at 6 MPH (5 knots; 2.6 m/s)
Visibility: 10 or more miles (16+ km)
Ceiling: at least 12,000 feet AGL
Clouds: scattered clouds at 3500 feet AGL
Weather: no significant weather observed at this time

METAR text: KUNV 161753Z 28006KT 10SM SCT033 00/M08 A2992
Conditions at: KUNV (STATE COLLEGE , PA, US) observed 1753 UTC 16 February 2019
Temperature: 0.0°C (32°F)
Dewpoint: -8.0°C (18°F) [RH = 55%]
Pressure (altimeter): 29.92 inches Hg (1013.3 mb)
Winds: from the W (280 degrees) at 7 MPH (6 knots; 3.1 m/s)
Visibility: 10 or more miles (16+ km)
Ceiling: at least 12,000 feet AGL
Clouds: scattered clouds at 3300 feet AGL
Weather: no significant weather observed at this time

METAR text: KUNV 161653Z 34006KT 10SM SKC M01/M08 A2994
Conditions at: KUNV (STATE COLLEGE , PA, US) observed 1653 UTC 16 February 2019
Temperature: -1.0°C (30°F)
Dewpoint: -8.0°C (18°F) [RH = 59%]
Pressure (altimeter): 29.94 inches Hg (1014.0 mb)
Winds: from the NNW (340 degrees) at 7 MPH (6 knots; 3.1 m/s)
Visibility: 10 or more miles (16+ km)
Ceiling: at least 12,000 feet AGL
Clouds: clear skies
Weather: no significant weather observed at this time

METAR text: KUNV 161553Z 34005KT 10SM SKC M01/M09 A2994
Conditions at: KUNV (STATE COLLEGE , PA, US) observed 1553 UTC 16 February 2019
Temperature: -1.0°C (30°F)
Dewpoint: -9.0°C (16°F) [RH = 55%]
Pressure (altimeter): 29.94 inches Hg (1014.0 mb)
Winds: from the NNW (340 degrees) at 6 MPH (5 knots; 2.6 m/s)
Visibility: 10 or more miles (16+ km)
Ceiling: at least 12,000 feet AGL
Clouds: clear skies
Weather: no significant weather observed at this time

METAR text: KUNV 161453Z 35011G19KT 10SM SCT031 M03/M09 A2994
Conditions at: KUNV (STATE COLLEGE , PA, US) observed 1453 UTC 16 February 2019
Temperature: -3.0°C (27°F)
Dewpoint: -9.0°C (16°F) [RH = 63%]
Pressure (altimeter): 29.94 inches Hg (1014.0 mb)
Winds: from the N (350 degrees) at 13 MPH (11 knots; 5.7 m/s)
gusting to 22 MPH (19 knots; 9.8 m/s)
Visibility: 10 or more miles (16+ km)
Ceiling: at least 12,000 feet AGL
Clouds: scattered clouds at 3100 feet AGL
Weather: no significant weather observed at this time

METAR text: KUNV 161353Z 34009G16KT 10SM SCT033 M03/M10 A2995
Conditions at: KUNV (STATE COLLEGE , PA, US) observed 1353 UTC 16 February 2019
Temperature: -3.0°C (27°F)
Dewpoint: -10.0°C (14°F) [RH = 58%]
Pressure (altimeter): 29.95 inches Hg (1014.3 mb)
Winds: from the NNW (340 degrees) at 10 MPH (9 knots; 4.6 m/s)
gusting to 18 MPH (16 knots; 8.2 m/s)
Visibility: 10 or more miles (16+ km)
Ceiling: at least 12,000 feet AGL
Clouds: scattered clouds at 3300 feet AGL
Weather: no significant weather observed at this time

METAR text: KUNV 161253Z 34008KT 10SM SCT030 M03/M09 A2992
Conditions at: KUNV (STATE COLLEGE , PA, US) observed 1253 UTC 16 February 2019
Temperature: -3.0°C (27°F)
Dewpoint: -9.0°C (16°F) [RH = 63%]
Pressure (altimeter): 29.92 inches Hg (1013.3 mb)
Winds: from the NNW (340 degrees) at 9 MPH (8 knots; 4.1 m/s)
Visibility: 10 or more miles (16+ km)
Ceiling: at least 12,000 feet AGL
Clouds: scattered clouds at 3000 feet AGL
Weather: no significant weather observed at this time

METAR text: KUNV 161153Z 31009KT 10SM BKN029 M03/M08 A2989
Conditions at: KUNV (STATE COLLEGE , PA, US) observed 1153 UTC 16 February 2019
Temperature: -3.0°C (27°F)
Dewpoint: -8.0°C (18°F) [RH = 68%]
Pressure (altimeter): 29.89 inches Hg (1012.3 mb)
Winds: from the NW (310 degrees) at 10 MPH (9 knots; 4.6 m/s)
Visibility: 10 or more miles (16+ km)
Ceiling: 2900 feet AGL
Clouds: broken clouds at 2900 feet AGL
Weather: no significant weather observed at this time

METAR text: KUNV 161053Z 29007KT 10SM OVC033 M03/M08 A2988
Conditions at: KUNV (STATE COLLEGE , PA, US) observed 1053 UTC 16 February 2019
Temperature: -3.0°C (27°F)
Dewpoint: -8.0°C (18°F) [RH = 68%]
Pressure (altimeter): 29.88 inches Hg (1011.9 mb)
Winds: from the WNW (290 degrees) at 8 MPH (7 knots; 3.6 m/s)
Visibility: 10 or more miles (16+ km)
Ceiling: 3300 feet AGL
Clouds: overcast cloud deck at 3300 feet AGL
Weather: no significant weather observed at this time

METAR text: KUNV 161036Z AUTO 30005KT 10SM OVC033 M02/M08 A2988 RMK AO2 T10251084
Conditions at: KUNV (STATE COLLEGE , PA, US) observed 1036 UTC 16 February 2019
Temperature: -2.5°C (28°F)
Dewpoint: -8.4°C (17°F) [RH = 64%]
Pressure (altimeter): 29.88 inches Hg (1011.9 mb)
Winds: from the WNW (300 degrees) at 6 MPH (5 knots; 2.6 m/s)
Visibility: 10 or more miles (16+ km)
Ceiling: 3300 feet AGL
Clouds: overcast cloud deck at 3300 feet AGL
Weather: automated observation with no human augmentation;
there may or may not be significant weather present at this time

METAR text: KUNV 161015Z AUTO 31005KT 10SM OVC033 M02/M08 A2988 RMK AO2 T10251084
Conditions at: KUNV (STATE COLLEGE , PA, US) observed 1015 UTC 16 February 2019
Temperature: -2.5°C (28°F)
Dewpoint: -8.4°C (17°F) [RH = 64%]
Pressure (altimeter): 29.88 inches Hg (1011.9 mb)
Winds: from the NW (310 degrees) at 6 MPH (5 knots; 2.6 m/s)
Visibility: 10 or more miles (16+ km)
Ceiling: 3300 feet AGL
Clouds: overcast cloud deck at 3300 feet AGL
Weather: automated observation with no human augmentation;
there may or may not be significant weather present at this time

METAR text: KUNV 160955Z AUTO 28005KT 10SM OVC035 M02/M08 A2988 RMK AO2 T10251083
Conditions at: KUNV (STATE COLLEGE , PA, US) observed 0955 UTC 16 February 2019
Temperature: -2.5°C (28°F)
Dewpoint: -8.3°C (17°F) [RH = 64%]
Pressure (altimeter): 29.88 inches Hg (1011.9 mb)
Winds: from the W (280 degrees) at 6 MPH (5 knots; 2.6 m/s)
Visibility: 10 or more miles (16+ km)
Ceiling: 3500 feet AGL
Clouds: overcast cloud deck at 3500 feet AGL
Weather: automated observation with no human augmentation;
there may or may not be significant weather present at this time

METAR text: KUNV 160936Z AUTO 29008KT 10SM OVC035 M02/M08 A2987 RMK AO2 T10251084
Conditions at: KUNV (STATE COLLEGE , PA, US) observed 0936 UTC 16 February 2019
Temperature: -2.5°C (28°F)
Dewpoint: -8.4°C (17°F) [RH = 64%]
Pressure (altimeter): 29.87 inches Hg (1011.6 mb)
Winds: from the WNW (290 degrees) at 9 MPH (8 knots; 4.1 m/s)
Visibility: 10 or more miles (16+ km)
Ceiling: 3500 feet AGL
Clouds: overcast cloud deck at 3500 feet AGL
Weather: automated observation with no human augmentation;
there may or may not be significant weather present at this time

METAR text: KUNV 160916Z AUTO 29007KT 10SM OVC035 M02/M09 A2987 RMK AO2 T10251086
Conditions at: KUNV (STATE COLLEGE , PA, US) observed 0916 UTC 16 February 2019
Temperature: -2.5°C (28°F)
Dewpoint: -8.6°C (17°F) [RH = 63%]
Pressure (altimeter): 29.87 inches Hg (1011.6 mb)
Winds: from the WNW (290 degrees) at 8 MPH (7 knots; 3.6 m/s)
Visibility: 10 or more miles (16+ km)
Ceiling: 3500 feet AGL
Clouds: overcast cloud deck at 3500 feet AGL
Weather: automated observation with no human augmentation;
there may or may not be significant weather present at this time

METAR text: KUNV 160856Z AUTO 29008KT 10SM OVC035 M02/M09 A2987 RMK AO2 T10241087
Conditions at: KUNV (STATE COLLEGE , PA, US) observed 0856 UTC 16 February 2019
Temperature: -2.4°C (28°F)
Dewpoint: -8.7°C (16°F) [RH = 62%]
Pressure (altimeter): 29.87 inches Hg (1011.6 mb)
Winds: from the WNW (290 degrees) at 9 MPH (8 knots; 4.1 m/s)
Visibility: 10 or more miles (16+ km)
Ceiling: 3500 feet AGL
Clouds: overcast cloud deck at 3500 feet AGL
Weather: automated observation with no human augmentation;
there may or may not be significant weather present at this time

METAR text: KUNV 160835Z AUTO 29008KT 10SM OVC037 M02/M09 A2986 RMK AO2 T10231090
Conditions at: KUNV (STATE COLLEGE , PA, US) observed 0835 UTC 16 February 2019
Temperature: -2.3°C (28°F)
Dewpoint: -9.0°C (16°F) [RH = 60%]
Pressure (altimeter): 29.86 inches Hg (1011.3 mb)
Winds: from the WNW (290 degrees) at 9 MPH (8 knots; 4.1 m/s)
Visibility: 10 or more miles (16+ km)
Ceiling: 3700 feet AGL
Clouds: overcast cloud deck at 3700 feet AGL
Weather: automated observation with no human augmentation;
there may or may not be significant weather present at this time

METAR text: KUNV 160815Z AUTO 29010KT 10SM OVC037 M02/M09 A2986 RMK AO2 T10221092
Conditions at: KUNV (STATE COLLEGE , PA, US) observed 0815 UTC 16 February 2019
Temperature: -2.2°C (28°F)
Dewpoint: -9.2°C (15°F) [RH = 59%]
Pressure (altimeter): 29.86 inches Hg (1011.3 mb)
Winds: from the WNW (290 degrees) at 12 MPH (10 knots; 5.1 m/s)
Visibility: 10 or more miles (16+ km)
Ceiling: 3700 feet AGL
Clouds: overcast cloud deck at 3700 feet AGL
Weather: automated observation with no human augmentation;
there may or may not be significant weather present at this time

METAR text: KUNV 160756Z AUTO 29010G14KT 10SM OVC037 M02/M09 A2986 RMK AO2 T10221091
Conditions at: KUNV (STATE COLLEGE , PA, US) observed 0756 UTC 16 February 2019
Temperature: -2.2°C (28°F)
Dewpoint: -9.1°C (16°F) [RH = 59%]
Pressure (altimeter): 29.86 inches Hg (1011.3 mb)
Winds: from the WNW (290 degrees) at 12 MPH (10 knots; 5.1 m/s)
gusting to 16 MPH (14 knots; 7.2 m/s)
Visibility: 10 or more miles (16+ km)
Ceiling: 3700 feet AGL
Clouds: overcast cloud deck at 3700 feet AGL
Weather: automated observation with no human augmentation;
there may or may not be significant weather present at this time

METAR text: KUNV 160735Z AUTO 28007KT 10SM BKN037 M02/M09 A2986 RMK AO2 T10211090
Conditions at: KUNV (STATE COLLEGE , PA, US) observed 0735 UTC 16 February 2019
Temperature: -2.1°C (28°F)
Dewpoint: -9.0°C (16°F) [RH = 59%]
Pressure (altimeter): 29.86 inches Hg (1011.3 mb)
Winds: from the W (280 degrees) at 8 MPH (7 knots; 3.6 m/s)
Visibility: 10 or more miles (16+ km)
Ceiling: 3700 feet AGL
Clouds: broken clouds at 3700 feet AGL
Weather: automated observation with no human augmentation;
there may or may not be significant weather present at this time

METAR text: KUNV 160715Z AUTO 29008KT 10SM SCT037 M02/M09 A2986 RMK AO2 T10231088
Conditions at: KUNV (STATE COLLEGE , PA, US) observed 0715 UTC 16 February 2019
Temperature: -2.3°C (28°F)
Dewpoint: -8.8°C (16°F) [RH = 61%]
Pressure (altimeter): 29.86 inches Hg (1011.3 mb)
Winds: from the WNW (290 degrees) at 9 MPH (8 knots; 4.1 m/s)
Visibility: 10 or more miles (16+ km)
Ceiling: at least 12,000 feet AGL
Clouds: scattered clouds at 3700 feet AGL
Weather: automated observation with no human augmentation;
there may or may not be significant weather present at this time

METAR text: KUNV 160655Z AUTO 29008G14KT 10SM OVC037 M02/M09 A2985 RMK AO2 T10181088
Conditions at: KUNV (STATE COLLEGE , PA, US) observed 0655 UTC 16 February 2019
Temperature: -1.8°C (29°F)
Dewpoint: -8.8°C (16°F) [RH = 59%]
Pressure (altimeter): 29.85 inches Hg (1010.9 mb)
Winds: from the WNW (290 degrees) at 9 MPH (8 knots; 4.1 m/s)
gusting to 16 MPH (14 knots; 7.2 m/s)
Visibility: 10 or more miles (16+ km)
Ceiling: 3700 feet AGL
Clouds: overcast cloud deck at 3700 feet AGL
Weather: automated observation with no human augmentation;
there may or may not be significant weather present at this time

METAR text: KUNV 160636Z AUTO 31007KT 10SM OVC035 M02/M08 A2985 RMK AO2 T10171085
Conditions at: KUNV (STATE COLLEGE , PA, US) observed 0636 UTC 16 February 2019
Temperature: -1.7°C (29°F)
Dewpoint: -8.5°C (17°F) [RH = 60%]
Pressure (altimeter): 29.85 inches Hg (1010.9 mb)
Winds: from the NW (310 degrees) at 8 MPH (7 knots; 3.6 m/s)
Visibility: 10 or more miles (16+ km)
Ceiling: 3500 feet AGL
Clouds: overcast cloud deck at 3500 feet AGL
Weather: automated observation with no human augmentation;
there may or may not be significant weather present at this time

METAR text: KUNV 160616Z AUTO 29008KT 10SM OVC035 M01/M08 A2985 RMK AO2 T10151083
Conditions at: KUNV (STATE COLLEGE , PA, US) observed 0616 UTC 16 February 2019
Temperature: -1.5°C (29°F)
Dewpoint: -8.3°C (17°F) [RH = 60%]
Pressure (altimeter): 29.85 inches Hg (1010.9 mb)
Winds: from the WNW (290 degrees) at 9 MPH (8 knots; 4.1 m/s)
Visibility: 10 or more miles (16+ km)
Ceiling: 3500 feet AGL
Clouds: overcast cloud deck at 3500 feet AGL
Weather: automated observation with no human augmentation;
there may or may not be significant weather present at this time

METAR text: KUNV 160555Z AUTO 28010KT 10SM BKN037 M01/M08 A2985 RMK AO2 T10151080 10052 21015
Conditions at: KUNV (STATE COLLEGE , PA, US) observed 0555 UTC 16 February 2019
Temperature: -1.5°C (29°F)
Dewpoint: -8.0°C (18°F) [RH = 61%]
Pressure (altimeter): 29.85 inches Hg (1010.9 mb)
Winds: from the W (280 degrees) at 12 MPH (10 knots; 5.1 m/s)
Visibility: 10 or more miles (16+ km)
Ceiling: 3700 feet AGL
Clouds: broken clouds at 3700 feet AGL
Weather: automated observation with no human augmentation;
there may or may not be significant weather present at this time

METAR text: KUNV 160535Z AUTO 26006KT 10SM SCT035 M01/M08 A2985 RMK AO2 T10151076
Conditions at: KUNV (STATE COLLEGE , PA, US) observed 0535 UTC 16 February 2019
Temperature: -1.5°C (29°F)
Dewpoint: -7.6°C (18°F) [RH = 63%]
Pressure (altimeter): 29.85 inches Hg (1010.9 mb)
Winds: from the W (260 degrees) at 7 MPH (6 knots; 3.1 m/s)
Visibility: 10 or more miles (16+ km)
Ceiling: at least 12,000 feet AGL
Clouds: scattered clouds at 3500 feet AGL
Weather: automated observation with no human augmentation;
there may or may not be significant weather present at this time

METAR text: KUNV 160516Z AUTO 26006KT 10SM CLR M01/M07 A2985 RMK AO2 T10101074
Conditions at: KUNV (STATE COLLEGE , PA, US) observed 0516 UTC 16 February 2019
Temperature: -1.0°C (30°F)
Dewpoint: -7.4°C (19°F) [RH = 62%]
Pressure (altimeter): 29.85 inches Hg (1010.9 mb)
Winds: from the W (260 degrees) at 7 MPH (6 knots; 3.1 m/s)
Visibility: 10 or more miles (16+ km)
Ceiling: at least 12,000 feet AGL
Clouds: sky clear below 12,000 feet AGL
Weather: automated observation with no human augmentation;
there may or may not be significant weather present at this time

METAR text: KUNV 160456Z AUTO 27010KT 10SM CLR M01/M07 A2984 RMK AO2 T10091071
Conditions at: KUNV (STATE COLLEGE , PA, US) observed 0456 UTC 16 February 2019
Temperature: -0.9°C (30°F)
Dewpoint: -7.1°C (19°F) [RH = 63%]
Pressure (altimeter): 29.84 inches Hg (1010.6 mb)
Winds: from the W (270 degrees) at 12 MPH (10 knots; 5.1 m/s)
Visibility: 10 or more miles (16+ km)
Ceiling: at least 12,000 feet AGL
Clouds: sky clear below 12,000 feet AGL
Weather: automated observation with no human augmentation;
there may or may not be significant weather present at this time

METAR text: KUNV 160435Z AUTO 26007KT 10SM CLR M01/M07 A2982 RMK AO2 T10081066
Conditions at: KUNV (STATE COLLEGE , PA, US) observed 0435 UTC 16 February 2019
Temperature: -0.8°C (31°F)
Dewpoint: -6.6°C (20°F) [RH = 65%]
Pressure (altimeter): 29.82 inches Hg (1009.9 mb)
Winds: from the W (260 degrees) at 8 MPH (7 knots; 3.6 m/s)
Visibility: 10 or more miles (16+ km)
Ceiling: at least 12,000 feet AGL
Clouds: sky clear below 12,000 feet AGL
Weather: automated observation with no human augmentation;
there may or may not be significant weather present at this time

METAR text: KUNV 160415Z AUTO 27008KT 10SM CLR 00/M07 A2982 RMK AO2 T10041067
Conditions at: KUNV (STATE COLLEGE , PA, US) observed 0415 UTC 16 February 2019
Temperature: -0.4°C (31°F)
Dewpoint: -6.7°C (20°F) [RH = 62%]
Pressure (altimeter): 29.82 inches Hg (1009.9 mb)
Winds: from the W (270 degrees) at 9 MPH (8 knots; 4.1 m/s)
Visibility: 10 or more miles (16+ km)
Ceiling: at least 12,000 feet AGL
Clouds: sky clear below 12,000 feet AGL
Weather: automated observation with no human augmentation;
there may or may not be significant weather present at this time

METAR text: KUNV 160355Z AUTO 28006KT 10SM CLR 00/M07 A2981 RMK AO2 T00001070 400980000
Conditions at: KUNV (STATE COLLEGE , PA, US) observed 0355 UTC 16 February 2019
Temperature: 0.0°C (32°F)
Dewpoint: -7.0°C (19°F) [RH = 59%]
Pressure (altimeter): 29.81 inches Hg (1009.6 mb)
Winds: from the W (280 degrees) at 7 MPH (6 knots; 3.1 m/s)
Visibility: 10 or more miles (16+ km)
Ceiling: at least 12,000 feet AGL
Clouds: sky clear below 12,000 feet AGL
Weather: automated observation with no human augmentation;
there may or may not be significant weather present at this time

METAR text: KUNV 160336Z AUTO 26009KT 10SM CLR 00/M07 A2981 RMK AO2 T00001070
Conditions at: KUNV (STATE COLLEGE , PA, US) observed 0336 UTC 16 February 2019
Temperature: 0.0°C (32°F)
Dewpoint: -7.0°C (19°F) [RH = 59%]
Pressure (altimeter): 29.81 inches Hg (1009.6 mb)
Winds: from the W (260 degrees) at 10 MPH (9 knots; 4.6 m/s)
Visibility: 10 or more miles (16+ km)
Ceiling: at least 12,000 feet AGL
Clouds: sky clear below 12,000 feet AGL
Weather: automated observation with no human augmentation;
there may or may not be significant weather present at this time

METAR text: KUNV 160316Z AUTO 27008KT 10SM CLR 00/M07 A2980 RMK AO2 T00021073
Conditions at: KUNV (STATE COLLEGE , PA, US) observed 0316 UTC 16 February 2019
Temperature: 0.2°C (32°F)
Dewpoint: -7.3°C (19°F) [RH = 57%]
Pressure (altimeter): 29.80 inches Hg (1009.2 mb)
Winds: from the W (270 degrees) at 9 MPH (8 knots; 4.1 m/s)
Visibility: 10 or more miles (16+ km)
Ceiling: at least 12,000 feet AGL
Clouds: sky clear below 12,000 feet AGL
Weather: automated observation with no human augmentation;
there may or may not be significant weather present at this time

METAR text: KUNV 160253Z 27007KT 10SM SKC 01/M08 A2979
Conditions at: KUNV (STATE COLLEGE , PA, US) observed 0253 UTC 16 February 2019
Temperature: 1.0°C (34°F)
Dewpoint: -8.0°C (18°F) [RH = 51%]
Pressure (altimeter): 29.79 inches Hg (1008.9 mb)
Winds: from the W (270 degrees) at 8 MPH (7 knots; 3.6 m/s)
Visibility: 10 or more miles (16+ km)
Ceiling: at least 12,000 feet AGL
Clouds: clear skies
Weather: no significant weather observed at this time

METAR text: KUNV 160153Z 28009G21KT 10SM SKC 02/M09 A2978
Conditions at: KUNV (STATE COLLEGE , PA, US) observed 0153 UTC 16 February 2019
Temperature: 2.0°C (36°F)
Dewpoint: -9.0°C (16°F) [RH = 44%]
Pressure (altimeter): 29.78 inches Hg (1008.5 mb)
Winds: from the W (280 degrees) at 10 MPH (9 knots; 4.6 m/s)
gusting to 24 MPH (21 knots; 10.8 m/s)
Visibility: 10 or more miles (16+ km)
Ceiling: at least 12,000 feet AGL
Clouds: clear skies
Weather: no significant weather observed at this time

METAR text: KUNV 160053Z 29015G26KT 10SM SKC 03/M09 A2976
Conditions at: KUNV (STATE COLLEGE , PA, US) observed 0053 UTC 16 February 2019
Temperature: 3.0°C (37°F)
Dewpoint: -9.0°C (16°F) [RH = 41%]
Pressure (altimeter): 29.76 inches Hg (1007.9 mb)
Winds: from the WNW (290 degrees) at 17 MPH (15 knots; 7.7 m/s)
gusting to 30 MPH (26 knots; 13.4 m/s)
Visibility: 10 or more miles (16+ km)
Ceiling: at least 12,000 feet AGL
Clouds: clear skies
Weather: no significant weather observed at this time

METAR text: KUNV 152353Z 29010KT 10SM SKC 05/M06 A2972
Conditions at: KUNV (STATE COLLEGE , PA, US) observed 2353 UTC 15 February 2019
Temperature: 5.0°C (41°F)
Dewpoint: -6.0°C (21°F) [RH = 45%]
Pressure (altimeter): 29.72 inches Hg (1006.5 mb)
Winds: from the WNW (290 degrees) at 12 MPH (10 knots; 5.1 m/s)
Visibility: 10 or more miles (16+ km)
Ceiling: at least 12,000 feet AGL
Clouds: clear skies
Weather: no significant weather observed at this time

METAR text: KUNV 152253Z 27015G22KT 10SM SKC 07/M07 A2968
Conditions at: KUNV (STATE COLLEGE , PA, US) observed 2253 UTC 15 February 2019
Temperature: 7.0°C (45°F)
Dewpoint: -7.0°C (19°F) [RH = 36%]
Pressure (altimeter): 29.68 inches Hg (1005.2 mb)
Winds: from the W (270 degrees) at 17 MPH (15 knots; 7.7 m/s)
gusting to 25 MPH (22 knots; 11.3 m/s)
Visibility: 10 or more miles (16+ km)
Ceiling: at least 12,000 feet AGL
Clouds: clear skies
Weather: no significant weather observed at this time

METAR text: KUNV 152153Z 26012G31KT 10SM SKC 09/M06 A2962
Conditions at: KUNV (STATE COLLEGE , PA, US) observed 2153 UTC 15 February 2019
Temperature: 9.0°C (48°F)
Dewpoint: -6.0°C (21°F) [RH = 34%]
Pressure (altimeter): 29.62 inches Hg (1003.1 mb)
Winds: from the W (260 degrees) at 14 MPH (12 knots; 6.2 m/s)
gusting to 36 MPH (31 knots; 15.9 m/s)
Visibility: 10 or more miles (16+ km)
Ceiling: at least 12,000 feet AGL
Clouds: clear skies
Weather: no significant weather observed at this time

METAR text: KUNV 152053Z 25015G27KT 10SM SCT060 SCT075 08/00 A2959
Conditions at: KUNV (STATE COLLEGE , PA, US) observed 2053 UTC 15 February 2019
Temperature: 8.0°C (46°F)
Dewpoint: 0.0°C (32°F) [RH = 57%]
Pressure (altimeter): 29.59 inches Hg (1002.1 mb)
Winds: from the WSW (250 degrees) at 17 MPH (15 knots; 7.7 m/s)
gusting to 31 MPH (27 knots; 13.9 m/s)
Visibility: 10 or more miles (16+ km)
Ceiling: at least 12,000 feet AGL
Clouds: scattered clouds at 6000 feet AGL
scattered clouds at 7500 feet AGL
Weather: no significant weather observed at this time

METAR text: KUNV 151953Z 25010KT 10SM SCT031 SCT038 BKN044 08/04 A2959
Conditions at: KUNV (STATE COLLEGE , PA, US) observed 1953 UTC 15 February 2019
Temperature: 8.0°C (46°F)
Dewpoint: 4.0°C (39°F) [RH = 76%]
Pressure (altimeter): 29.59 inches Hg (1002.1 mb)
Winds: from the WSW (250 degrees) at 12 MPH (10 knots; 5.1 m/s)
Visibility: 10 or more miles (16+ km)
Ceiling: 4400 feet AGL
Clouds: scattered clouds at 3100 feet AGL
scattered clouds at 3800 feet AGL
broken clouds at 4400 feet AGL
Weather: no significant weather observed at this time

METAR text: KUNV 151853Z 24009KT 10SM SCT030 BKN037 OVC045 07/04 A2958
Conditions at: KUNV (STATE COLLEGE , PA, US) observed 1853 UTC 15 February 2019
Temperature: 7.0°C (45°F)
Dewpoint: 4.0°C (39°F) [RH = 81%]
Pressure (altimeter): 29.58 inches Hg (1001.8 mb)
Winds: from the WSW (240 degrees) at 10 MPH (9 knots; 4.6 m/s)
Visibility: 10 or more miles (16+ km)
Ceiling: 3700 feet AGL
Clouds: scattered clouds at 3000 feet AGL
broken clouds at 3700 feet AGL
overcast cloud deck at 4500 feet AGL
Weather: no significant weather observed at this time

METAR text: KUNV 151753Z 22012G17KT 10SM SCT039 BKN046 BKN085 09/02 A2957
Conditions at: KUNV (STATE COLLEGE , PA, US) observed 1753 UTC 15 February 2019
Temperature: 9.0°C (48°F)
Dewpoint: 2.0°C (36°F) [RH = 61%]
Pressure (altimeter): 29.57 inches Hg (1001.4 mb)
Winds: from the SW (220 degrees) at 14 MPH (12 knots; 6.2 m/s)
gusting to 20 MPH (17 knots; 8.7 m/s)
Visibility: 10 or more miles (16+ km)
Ceiling: 4600 feet AGL
Clouds: scattered clouds at 3900 feet AGL
broken clouds at 4600 feet AGL
broken clouds at 8500 feet AGL
Weather: no significant weather observed at this time

METAR text: KUNV 151653Z 21008G16KT 10SM BKN036 08/02 A2961
Conditions at: KUNV (STATE COLLEGE , PA, US) observed 1653 UTC 15 February 2019
Temperature: 8.0°C (46°F)
Dewpoint: 2.0°C (36°F) [RH = 66%]
Pressure (altimeter): 29.61 inches Hg (1002.8 mb)
Winds: from the SSW (210 degrees) at 9 MPH (8 knots; 4.1 m/s)
gusting to 18 MPH (16 knots; 8.2 m/s)
Visibility: 10 or more miles (16+ km)
Ceiling: 3600 feet AGL
Clouds: broken clouds at 3600 feet AGL
Weather: no significant weather observed at this time

METAR text: KUNV 151553Z 21010G18KT 10SM BKN035 BKN047 OVC050 07/00 A2963
Conditions at: KUNV (STATE COLLEGE , PA, US) observed 1553 UTC 15 February 2019
Temperature: 7.0°C (45°F)
Dewpoint: 0.0°C (32°F) [RH = 61%]
Pressure (altimeter): 29.63 inches Hg (1003.5 mb)
Winds: from the SSW (210 degrees) at 12 MPH (10 knots; 5.1 m/s)
gusting to 21 MPH (18 knots; 9.3 m/s)
Visibility: 10 or more miles (16+ km)
Ceiling: 3500 feet AGL
Clouds: broken clouds at 3500 feet AGL
broken clouds at 4700 feet AGL
overcast cloud deck at 5000 feet AGL
Weather: no significant weather observed at this time

METAR text: KUNV 151453Z 23006KT 10SM SCT035 BKN055 OVC080 05/M02 A2963
Conditions at: KUNV (STATE COLLEGE , PA, US) observed 1453 UTC 15 February 2019
Temperature: 5.0°C (41°F)
Dewpoint: -2.0°C (28°F) [RH = 60%]
Pressure (altimeter): 29.63 inches Hg (1003.5 mb)
Winds: from the SW (230 degrees) at 7 MPH (6 knots; 3.1 m/s)
Visibility: 10 or more miles (16+ km)
Ceiling: 5500 feet AGL
Clouds: scattered clouds at 3500 feet AGL
broken clouds at 5500 feet AGL
overcast cloud deck at 8000 feet AGL
Weather: no significant weather observed at this time

METAR text: KUNV 151353Z 24006KT 10SM OVC045 04/M02 A2964
Conditions at: KUNV (STATE COLLEGE , PA, US) observed 1353 UTC 15 February 2019
Temperature: 4.0°C (39°F)
Dewpoint: -2.0°C (28°F) [RH = 65%]
Pressure (altimeter): 29.64 inches Hg (1003.8 mb)
Winds: from the WSW (240 degrees) at 7 MPH (6 knots; 3.1 m/s)
Visibility: 10 or more miles (16+ km)
Ceiling: 4500 feet AGL
Clouds: overcast cloud deck at 4500 feet AGL
Weather: no significant weather observed at this time

METAR text: KUNV 151253Z 25005KT 10SM BKN050 OVC060 04/M03 A2964
Conditions at: KUNV (STATE COLLEGE , PA, US) observed 1253 UTC 15 February 2019
Temperature: 4.0°C (39°F)
Dewpoint: -3.0°C (27°F) [RH = 60%]
Pressure (altimeter): 29.64 inches Hg (1003.8 mb)
Winds: from the WSW (250 degrees) at 6 MPH (5 knots; 2.6 m/s)
Visibility: 10 or more miles (16+ km)
Ceiling: 5000 feet AGL
Clouds: broken clouds at 5000 feet AGL
overcast cloud deck at 6000 feet AGL
Weather: no significant weather observed at this time

METAR text: KUNV 151153Z 25004KT 10SM SCT070 OVC090 04/M03 A2964
Conditions at: KUNV (STATE COLLEGE , PA, US) observed 1153 UTC 15 February 2019
Temperature: 4.0°C (39°F)
Dewpoint: -3.0°C (27°F) [RH = 60%]
Pressure (altimeter): 29.64 inches Hg (1003.8 mb)
Winds: from the WSW (250 degrees) at 5 MPH (4 knots; 2.1 m/s)
Visibility: 10 or more miles (16+ km)
Ceiling: 9000 feet AGL
Clouds: scattered clouds at 7000 feet AGL
overcast cloud deck at 9000 feet AGL
Weather: no significant weather observed at this time

METAR text: KUNV 151053Z 27003KT 10SM OVC070 04/M04 A2966
Conditions at: KUNV (STATE COLLEGE , PA, US) observed 1053 UTC 15 February 2019
Temperature: 4.0°C (39°F)
Dewpoint: -4.0°C (25°F) [RH = 56%]
Pressure (altimeter): 29.66 inches Hg (1004.5 mb)
Winds: from the W (270 degrees) at 3 MPH (3 knots; 1.5 m/s)
Visibility: 10 or more miles (16+ km)
Ceiling: 7000 feet AGL
Clouds: overcast cloud deck at 7000 feet AGL
Weather: no significant weather observed at this time

METAR text: KUNV 151035Z AUTO 22003KT 10SM OVC070 04/M03 A2966 RMK AO2 P0001 T00441035
Conditions at: KUNV (STATE COLLEGE , PA, US) observed 1035 UTC 15 February 2019
Temperature: 4.4°C (40°F)
Dewpoint: -3.5°C (26°F) [RH = 56%]
Pressure (altimeter): 29.66 inches Hg (1004.5 mb)
Winds: from the SW (220 degrees) at 3 MPH (3 knots; 1.5 m/s)
Visibility: 10 or more miles (16+ km)
Ceiling: 7000 feet AGL
Clouds: overcast cloud deck at 7000 feet AGL
Weather: automated observation with no human augmentation;
there may or may not be significant weather present at this time

METAR text: KUNV 151016Z AUTO 00000KT 10SM OVC070 05/M04 A2966 RMK AO2 P0001 T00461037
Conditions at: KUNV (STATE COLLEGE , PA, US) observed 1016 UTC 15 February 2019
Temperature: 4.6°C (40°F)
Dewpoint: -3.7°C (25°F) [RH = 55%]
Pressure (altimeter): 29.66 inches Hg (1004.5 mb)
Winds: calm
Visibility: 10 or more miles (16+ km)
Ceiling: 7000 feet AGL
Clouds: overcast cloud deck at 7000 feet AGL
Weather: automated observation with no human augmentation;
there may or may not be significant weather present at this time

METAR text: KUNV 150956Z AUTO 21004KT 10SM OVC080 04/M03 A2967 RMK AO2 P0001 T00421031
Conditions at: KUNV (STATE COLLEGE , PA, US) observed 0956 UTC 15 February 2019
Temperature: 4.2°C (40°F)
Dewpoint: -3.1°C (26°F) [RH = 59%]
Pressure (altimeter): 29.67 inches Hg (1004.8 mb)
Winds: from the SSW (210 degrees) at 5 MPH (4 knots; 2.1 m/s)
Visibility: 10 or more miles (16+ km)
Ceiling: 8000 feet AGL
Clouds: overcast cloud deck at 8000 feet AGL
Weather: automated observation with no human augmentation;
there may or may not be significant weather present at this time

Forecast for: KUNV (STATE COLLEGE , PA, US)
Text: KUNV 161740Z 1618/1718 34007KT P6SM FEW035
Forecast period: 1800 UTC 16 February 2019 to 0000 UTC 17 February 2019
Forecast type: FROM: standard forecast or significant change
Winds: from the NNW (340 degrees) at 8 MPH (7 knots; 3.6 m/s)
Visibility: 6 or more miles 10+ km)
Ceiling: at least 12,000 feet AGL
Clouds: few clouds at 3500 feet AGL
Weather: no significant weather forecast for this period
Text: FM170000 35006KT P6SM SCT250
Forecast period: 0000 to 0800 UTC 17 February 2019
Forecast type: FROM: standard forecast or significant change
Winds: from the N (350 degrees) at 7 MPH (6 knots; 3.1 m/s)
Visibility: 6 or more miles 10+ km)
Ceiling: at least 12,000 feet AGL
Clouds: scattered clouds at 25000 feet AGL
Weather: no significant weather forecast for this period
Text: FM170800 03003KT P6SM BKN250
Forecast period: 0800 to 1500 UTC 17 February 2019
Forecast type: FROM: standard forecast or significant change
Winds: from the NNE (30 degrees) at 3 MPH (3 knots; 1.5 m/s)
Visibility: 6 or more miles 10+ km)
Ceiling: 25000 feet AGL
Clouds: broken clouds at 25000 feet AGL
Weather: no significant weather forecast for this period
Text: FM171500 12007KT P6SM BKN060 OVC080
Forecast period: 1500 to 1800 UTC 17 February 2019
Forecast type: FROM: standard forecast or significant change
Winds: from the ESE (120 degrees) at 8 MPH (7 knots; 3.6 m/s)
Visibility: 6 or more miles 10+ km)
Ceiling: 6000 feet AGL
Clouds: broken clouds at 6000 feet AGL
overcast cloud deck at 8000 feet AGL
Weather: no significant weather forecast for this period